createdAt,value
2023-03-16T00:00:56.962Z,12.97
2023-03-16T00:03:58.545Z,10.90
2023-03-16T00:07:00.136Z,13.13
2023-03-16T00:10:02.122Z,13.87
2023-03-16T00:13:03.739Z,15.73
2023-03-16T00:16:07.446Z,9.80
2023-03-16T00:19:09.039Z,9.70
2023-03-16T00:22:14.555Z,10.57
2023-03-16T00:25:17.183Z,11.10
2023-03-16T00:28:18.917Z,12.67
2023-03-16T00:31:20.786Z,13.60
2023-03-16T00:34:22.823Z,15.20
2023-03-16T00:37:26.751Z,14.93
2023-03-16T00:40:28.780Z,13.97
2023-03-16T00:43:40.898Z,10.97
2023-03-16T00:46:42.753Z,14.00
2023-03-16T00:49:44.684Z,13.37
2023-03-16T00:52:46.270Z,13.97
2023-03-16T00:55:47.958Z,12.80
2023-03-16T00:58:49.519Z,10.40
2023-03-16T01:01:52.083Z,11.40
2023-03-16T01:04:54.562Z,11.50
2023-03-16T01:07:56.518Z,10.43
2023-03-16T01:11:04.970Z,11.97
2023-03-16T01:14:06.546Z,10.40
2023-03-16T01:17:09.675Z,17.10
2023-03-16T01:20:12.437Z,13.93
2023-03-16T01:23:14.324Z,14.20
2023-03-16T01:26:17.678Z,13.30
2023-03-16T01:29:19.239Z,16.60
2023-03-16T01:32:20.886Z,11.63
2023-03-16T01:35:22.608Z,9.90
2023-03-16T01:38:25.057Z,14.03
2023-03-16T01:41:27.398Z,12.63
2023-03-16T01:44:30.854Z,10.50
2023-03-16T01:47:38.354Z,9.80
2023-03-16T01:50:42.050Z,15.30
2023-03-16T01:53:47.039Z,11.60
2023-03-16T01:57:00.567Z,9.90
2023-03-16T02:00:31.563Z,10.20
2023-03-16T02:03:34.956Z,17.53
2023-03-16T02:06:37.912Z,11.27
2023-03-16T02:09:42.770Z,12.63
2023-03-16T02:12:45.051Z,9.90
2023-03-16T02:15:46.742Z,8.53
2023-03-16T02:18:50.194Z,9.00
2023-03-16T02:22:02.516Z,9.87
2023-03-16T02:25:04.615Z,12.77
2023-03-16T02:28:48.578Z,7.60
2023-03-16T02:31:50.293Z,8.70
2023-03-16T02:34:52.112Z,9.60
2023-03-16T02:37:54.025Z,6.17
2023-03-16T02:41:13.904Z,9.67
2023-03-16T02:44:24.244Z,8.80
2023-03-16T02:47:41.646Z,10.10
2023-03-16T02:50:47.034Z,9.90
2023-03-16T02:53:48.671Z,11.43
2023-03-16T02:56:50.830Z,10.80
2023-03-16T02:59:52.373Z,8.23
2023-03-16T03:02:53.968Z,11.13
2023-03-16T03:05:55.725Z,9.77
2023-03-16T03:08:57.318Z,8.70
2023-03-16T03:11:59.824Z,8.33
2023-03-16T03:15:01.418Z,10.10
2023-03-16T03:18:04.002Z,10.37
2023-03-16T03:21:06.750Z,6.77
2023-03-16T03:24:09.199Z,11.10
2023-03-16T03:27:11.342Z,9.60
2023-03-16T03:30:21.726Z,11.33
2023-03-16T03:33:23.578Z,7.83
2023-03-16T03:36:25.244Z,7.93
2023-03-16T03:39:26.885Z,11.13
2023-03-16T03:42:28.465Z,9.27
2023-03-16T03:45:30.530Z,7.70
2023-03-16T03:48:32.212Z,9.63
2023-03-16T03:51:34.275Z,10.03
2023-03-16T03:54:35.926Z,12.30
2023-03-16T03:57:37.582Z,8.77
2023-03-16T04:00:39.278Z,10.30
2023-03-16T04:03:41.686Z,14.03
2023-03-16T04:06:44.457Z,9.03
2023-03-16T04:09:46.051Z,10.00
2023-03-16T04:12:47.609Z,6.60
2023-03-16T04:15:49.377Z,11.03
2023-03-16T04:18:50.924Z,8.00
2023-03-16T04:21:52.680Z,10.77
2023-03-16T04:24:54.381Z,10.70
2023-03-16T04:27:56.566Z,9.80
2023-03-16T04:31:07.095Z,9.67
2023-03-16T04:34:09.010Z,11.70
2023-03-16T04:37:10.759Z,8.70
2023-03-16T04:40:19.301Z,14.57
2023-03-16T04:43:20.872Z,10.70
2023-03-16T04:46:22.497Z,8.10
2023-03-16T04:49:24.735Z,11.57
2023-03-16T04:52:26.386Z,12.57
2023-03-16T04:55:28.192Z,9.60
2023-03-16T04:58:29.895Z,14.83
2023-03-16T05:01:31.742Z,8.60
2023-03-16T05:04:34.399Z,9.90
2023-03-16T05:07:36.042Z,10.47
2023-03-16T05:10:38.554Z,10.70
2023-03-16T05:13:40.177Z,14.37
2023-03-16T05:16:41.930Z,12.97
2023-03-16T05:19:43.490Z,14.13
2023-03-16T05:22:46.483Z,9.00
2023-03-16T05:25:48.897Z,10.13
2023-03-16T05:28:50.504Z,10.43
2023-03-16T05:31:52.122Z,11.83
2023-03-16T05:34:53.673Z,11.20
2023-03-16T05:37:55.225Z,8.20
2023-03-16T05:41:01.690Z,12.10
2023-03-16T05:44:04.317Z,11.37
2023-03-16T05:47:06.099Z,11.87
2023-03-16T05:50:11.172Z,13.20
2023-03-16T05:53:13.298Z,13.43
2023-03-16T05:56:15.044Z,13.10
2023-03-16T05:59:18.036Z,9.90
2023-03-16T06:02:19.620Z,12.03
2023-03-16T06:05:21.938Z,10.27
2023-03-16T06:08:23.483Z,14.50
2023-03-16T06:11:25.160Z,11.83
2023-03-16T06:14:26.831Z,9.27
2023-03-16T06:17:28.645Z,13.83
2023-03-16T06:20:30.485Z,10.63
2023-03-16T06:23:32.325Z,19.67
2023-03-16T06:26:33.924Z,20.40
2023-03-16T06:29:35.759Z,15.60
2023-03-16T06:32:38.013Z,13.50
2023-03-16T06:35:39.798Z,16.27
2023-03-16T06:38:41.396Z,18.57
2023-03-16T06:41:44.020Z,15.20
2023-03-16T06:44:45.579Z,28.60
2023-03-16T06:47:47.253Z,20.17
2023-03-16T06:50:48.825Z,15.87
2023-03-16T06:53:50.396Z,14.90
2023-03-16T06:56:52.353Z,17.33
2023-03-16T06:59:53.979Z,14.50
2023-03-16T07:02:55.528Z,23.90
2023-03-16T07:05:57.392Z,28.17
2023-03-16T07:08:59.081Z,13.73
2023-03-16T07:12:00.670Z,21.63
2023-03-16T07:15:02.319Z,16.73
2023-03-16T07:18:03.994Z,14.50
2023-03-16T07:21:06.290Z,17.33
2023-03-16T07:24:09.694Z,12.37
2023-03-16T07:27:12.571Z,14.63
2023-03-16T07:30:14.529Z,16.10
2023-03-16T07:33:16.157Z,14.63
2023-03-16T07:36:18.013Z,20.27
2023-03-16T07:39:19.769Z,13.40
2023-03-16T07:42:22.616Z,14.03
2023-03-16T07:45:24.198Z,11.73
2023-03-16T07:48:28.548Z,14.43
2023-03-16T07:51:30.112Z,11.43
2023-03-16T07:54:31.761Z,13.90
2023-03-16T07:57:33.534Z,12.60
2023-03-16T08:00:35.118Z,12.73
2023-03-16T08:03:36.727Z,11.90
2023-03-16T08:06:38.382Z,13.40
2023-03-16T08:09:41.297Z,11.50
2023-03-16T08:12:43.022Z,8.33
2023-03-16T08:15:49.050Z,11.77
2023-03-16T08:18:51.829Z,10.57
2023-03-16T08:22:01.378Z,19.90
2023-03-16T08:25:06.123Z,10.00
2023-03-16T08:28:08.839Z,11.33
2023-03-16T08:31:10.533Z,9.97
2023-03-16T08:34:12.345Z,11.80
2023-03-16T08:37:14.588Z,10.63
2023-03-16T08:40:22.723Z,12.77
2023-03-16T08:43:24.409Z,7.50
2023-03-16T08:46:26.621Z,9.30
2023-03-16T08:49:29.349Z,10.50
2023-03-16T08:52:31.653Z,11.03
2023-03-16T08:55:33.289Z,9.23
2023-03-16T08:58:35.637Z,8.93
2023-03-16T09:01:37.202Z,9.03
2023-03-16T09:04:39.046Z,9.03
2023-03-16T09:07:41.030Z,8.53
2023-03-16T09:10:43.200Z,8.93
2023-03-16T09:13:46.302Z,7.97
2023-03-16T09:16:48.362Z,10.93
2023-03-16T09:19:52.424Z,7.40
2023-03-16T09:22:56.287Z,7.70
2023-03-16T09:26:00.038Z,7.30
2023-03-16T09:29:02.101Z,8.00
2023-03-16T09:32:05.322Z,6.70
2023-03-16T09:35:07.357Z,7.83
2023-03-16T09:38:08.930Z,7.50
2023-03-16T09:41:29.406Z,8.33
2023-03-16T09:44:43.037Z,7.90
2023-03-16T09:47:47.664Z,8.70
2023-03-16T09:50:50.799Z,10.63
2023-03-16T09:53:58.218Z,8.20
2023-03-16T09:57:01.558Z,8.07
2023-03-16T10:00:22.090Z,9.93
2023-03-16T10:03:42.686Z,9.07
2023-03-16T10:07:12.515Z,8.40
2023-03-16T10:10:14.523Z,8.63
2023-03-16T10:13:39.195Z,9.53
2023-03-16T10:17:01.083Z,8.93
2023-03-16T10:20:17.491Z,8.57
2023-03-16T10:23:24.330Z,10.50
2023-03-16T10:26:33.987Z,7.93
2023-03-16T10:29:36.938Z,10.20
2023-03-16T10:32:38.646Z,7.90
2023-03-16T10:35:49.522Z,9.40
2023-03-16T10:38:55.233Z,7.17
2023-03-16T10:41:57.728Z,8.10
2023-03-16T10:45:01.780Z,7.07
2023-03-16T10:48:13.985Z,8.30
2023-03-16T10:51:17.646Z,11.47
2023-03-16T10:54:37.451Z,6.80
2023-03-16T10:57:47.849Z,8.50
2023-03-16T11:00:49.426Z,8.07
2023-03-16T11:03:55.418Z,8.37
2023-03-16T11:06:58.422Z,7.17
2023-03-16T11:10:01.753Z,7.67
2023-03-16T11:13:14.603Z,7.77
2023-03-16T11:16:30.627Z,6.90
2023-03-16T11:19:48.577Z,6.90
2023-03-16T11:22:51.124Z,7.47
2023-03-16T11:25:55.660Z,6.60
2023-03-16T11:29:09.215Z,6.82
2023-03-16T11:32:20.449Z,7.88
2023-03-16T11:35:58.713Z,6.33
2023-03-16T11:39:10.751Z,7.17
2023-03-16T11:42:39.338Z,6.93
2023-03-16T11:46:05.563Z,6.20
2023-03-16T11:49:29.196Z,9.13
2023-03-16T11:53:01.293Z,6.80
2023-03-16T11:56:31.878Z,5.73
2023-03-16T12:00:14.916Z,5.30
2023-03-16T12:03:31.024Z,4.70
2023-03-16T12:06:45.477Z,5.13
2023-03-16T12:09:53.189Z,4.67
2023-03-16T12:13:14.438Z,4.83
2023-03-16T12:16:23.845Z,4.83
2023-03-16T12:19:44.819Z,3.80
2023-03-16T12:22:51.338Z,5.03
2023-03-16T12:25:53.688Z,5.43
2023-03-16T12:28:56.920Z,5.10
2023-03-16T12:32:10.446Z,5.57
2023-03-16T12:35:41.314Z,4.50
2023-03-16T12:38:53.548Z,3.40
2023-03-16T12:42:13.337Z,4.37
2023-03-16T12:45:23.590Z,4.13
2023-03-16T12:48:39.654Z,3.17
2023-03-16T12:51:43.241Z,3.10
2023-03-16T12:55:12.146Z,5.17
2023-03-16T12:58:17.955Z,4.43
2023-03-16T13:01:28.282Z,4.27
2023-03-16T13:04:38.420Z,4.07
2023-03-16T13:07:48.654Z,3.53
2023-03-16T13:11:06.441Z,3.93
2023-03-16T13:14:12.585Z,3.97
2023-03-16T13:17:17.288Z,3.87
2023-03-16T13:20:31.056Z,3.70
2023-03-16T13:23:58.063Z,3.40
2023-03-16T13:27:06.400Z,3.47
2023-03-16T13:30:34.658Z,3.53
2023-03-16T13:33:38.117Z,3.90
2023-03-16T13:36:39.976Z,3.67
2023-03-16T13:39:41.580Z,3.00
2023-03-16T13:42:49.685Z,3.03
2023-03-16T13:45:51.944Z,2.97
2023-03-16T13:48:53.560Z,3.50
2023-03-16T13:51:55.172Z,5.00
2023-03-16T13:54:58.676Z,3.03
2023-03-16T13:58:01.695Z,3.00
2023-03-16T14:01:05.556Z,4.70
2023-03-16T14:04:13.732Z,3.17
2023-03-16T14:07:18.990Z,2.70
2023-03-16T14:10:22.818Z,3.03
2023-03-16T14:13:32.929Z,5.17
2023-03-16T14:16:35.559Z,3.23
2023-03-16T14:19:45.644Z,3.77
2023-03-16T14:22:47.674Z,3.30
2023-03-16T14:25:49.573Z,10.67
2023-03-16T14:29:14.703Z,2.70
2023-03-16T14:32:29.061Z,4.67
2023-03-16T14:35:42.638Z,4.90
2023-03-16T14:38:48.554Z,4.00
2023-03-16T14:41:52.033Z,6.83
2023-03-16T14:44:53.728Z,3.40
2023-03-16T14:48:05.821Z,4.80
2023-03-16T14:51:13.687Z,4.37
2023-03-16T14:54:17.783Z,3.70
2023-03-16T14:57:19.684Z,5.83
2023-03-16T15:00:22.832Z,4.00
2023-03-16T15:03:33.118Z,3.90
2023-03-16T15:06:34.905Z,3.80
2023-03-16T15:09:43.294Z,3.37
2023-03-16T15:12:50.476Z,3.70
2023-03-16T15:15:52.253Z,5.70
2023-03-16T15:18:53.899Z,4.00
2023-03-16T15:22:03.271Z,3.57
2023-03-16T15:25:16.812Z,4.20
2023-03-16T15:28:21.173Z,3.60
2023-03-16T15:31:23.205Z,3.17
2023-03-16T15:34:25.065Z,3.23
2023-03-16T15:37:27.553Z,3.23
2023-03-16T15:40:31.293Z,4.40
2023-03-16T15:43:33.094Z,3.10
2023-03-16T15:46:34.908Z,3.80
2023-03-16T15:49:47.231Z,3.53
2023-03-16T15:52:58.566Z,3.17
2023-03-16T15:56:07.045Z,3.93
2023-03-16T15:59:14.369Z,3.93
2023-03-16T16:02:42.208Z,4.87
2023-03-16T16:05:43.772Z,4.73
2023-03-16T16:08:45.492Z,3.53
2023-03-16T16:11:48.886Z,3.77
2023-03-16T16:14:50.442Z,4.03
2023-03-16T16:18:18.987Z,4.03
2023-03-16T16:21:23.189Z,4.43
2023-03-16T16:24:25.587Z,4.67
2023-03-16T16:27:27.142Z,3.03
2023-03-16T16:30:31.567Z,6.30
2023-03-16T16:33:35.657Z,4.10
2023-03-16T16:36:37.255Z,3.90
2023-03-16T16:39:39.209Z,4.23
2023-03-16T16:42:41.434Z,3.37
2023-03-16T16:45:43.028Z,6.60
2023-03-16T16:48:48.042Z,3.40
2023-03-16T16:51:52.551Z,3.07
2023-03-16T16:54:54.110Z,5.27
2023-03-16T16:57:55.726Z,6.33
2023-03-16T17:00:58.771Z,5.53
2023-03-16T17:04:02.059Z,6.67
2023-03-16T17:07:06.393Z,9.57
2023-03-16T17:10:09.713Z,6.20
2023-03-16T17:13:29.672Z,7.87
2023-03-16T17:16:34.126Z,4.30
2023-03-16T17:19:36.289Z,10.30
2023-03-16T17:22:37.846Z,9.13
2023-03-16T17:25:39.420Z,7.67
2023-03-16T17:28:46.329Z,3.47
2023-03-16T17:31:49.350Z,4.10
2023-03-16T17:34:51.194Z,5.23
2023-03-16T17:37:52.814Z,6.10
2023-03-16T17:40:55.271Z,12.40
2023-03-16T17:44:01.933Z,7.50
2023-03-16T17:47:04.040Z,5.07
2023-03-16T17:50:29.007Z,25.40
2023-03-16T17:53:31.096Z,4.83
2023-03-16T17:56:33.455Z,6.80
2023-03-16T17:59:35.039Z,4.50
2023-03-16T18:02:54.330Z,6.23
2023-03-16T18:05:56.035Z,5.80
2023-03-16T18:08:57.924Z,13.67
2023-03-16T18:11:59.565Z,6.97
2023-03-16T18:15:01.457Z,8.37
2023-03-16T18:18:05.846Z,10.50
2023-03-16T18:21:08.701Z,7.40
2023-03-16T18:24:15.876Z,13.30
2023-03-16T18:27:17.935Z,5.20
2023-03-16T18:30:19.543Z,4.97
2023-03-16T18:33:28.534Z,3.43
2023-03-16T18:36:32.961Z,5.57
2023-03-16T18:39:34.638Z,6.90
2023-03-16T18:42:36.239Z,5.23
2023-03-16T18:45:37.888Z,5.63
2023-03-16T18:48:39.464Z,7.30
2023-03-16T18:51:45.654Z,7.83
2023-03-16T18:54:48.149Z,12.03
2023-03-16T18:57:52.656Z,8.80
2023-03-16T19:00:57.455Z,9.43
2023-03-16T19:04:02.114Z,7.07
2023-03-16T19:07:05.438Z,5.00
2023-03-16T19:10:23.091Z,5.00
2023-03-16T19:13:26.102Z,4.47
2023-03-16T19:16:27.841Z,9.63
2023-03-16T19:19:29.448Z,13.77
2023-03-16T19:22:31.056Z,9.17
2023-03-16T19:25:36.923Z,32.60
2023-03-16T19:28:42.123Z,10.80
2023-03-16T19:31:43.732Z,14.83
2023-03-16T19:34:46.647Z,13.03
2023-03-16T19:37:48.938Z,12.43
2023-03-16T19:40:57.754Z,8.70
2023-03-16T19:44:08.279Z,12.50
2023-03-16T19:47:28.100Z,7.37
2023-03-16T19:50:30.329Z,7.67
2023-03-16T19:53:32.681Z,5.60
2023-03-16T19:56:34.352Z,6.53
2023-03-16T19:59:36.641Z,8.80
2023-03-16T20:02:40.338Z,7.50
2023-03-16T20:05:41.991Z,9.57
2023-03-16T20:08:44.155Z,8.83
2023-03-16T20:11:47.361Z,8.57
2023-03-16T20:14:51.242Z,6.33
2023-03-16T20:17:53.018Z,9.17
2023-03-16T20:20:54.705Z,10.40
2023-03-16T20:23:56.657Z,7.33
2023-03-16T20:26:58.272Z,6.77
2023-03-16T20:29:59.901Z,7.17
2023-03-16T20:33:02.171Z,6.83
2023-03-16T20:36:04.007Z,9.07
2023-03-16T20:39:05.614Z,5.50
2023-03-16T20:42:18.182Z,5.60
2023-03-16T20:45:25.917Z,6.27
2023-03-16T20:48:28.123Z,6.23
2023-03-16T20:51:30.426Z,8.00
2023-03-16T20:54:32.039Z,8.10
2023-03-16T20:57:33.694Z,7.10
2023-03-16T21:00:37.549Z,6.87
2023-03-16T21:03:39.414Z,7.43
2023-03-16T21:06:41.297Z,8.73
2023-03-16T21:09:49.918Z,11.73
2023-03-16T21:12:54.601Z,7.10
2023-03-16T21:15:59.622Z,5.93
2023-03-16T21:19:01.315Z,6.70
2023-03-16T21:22:02.904Z,5.17
2023-03-16T21:25:04.835Z,9.90
2023-03-16T21:28:07.052Z,9.90
2023-03-16T21:31:11.390Z,10.10
2023-03-16T21:34:29.993Z,8.30
2023-03-16T21:37:31.724Z,8.37
2023-03-16T21:40:33.287Z,7.70
2023-03-16T21:43:35.378Z,6.63
2023-03-16T21:46:37.003Z,6.07
2023-03-16T21:49:39.374Z,9.93
2023-03-16T21:52:43.184Z,7.17
2023-03-16T21:55:44.912Z,9.93
2023-03-16T21:58:47.621Z,5.40
2023-03-16T22:02:01.319Z,7.37
2023-03-16T22:05:28.396Z,9.03
2023-03-16T22:08:33.021Z,6.80
2023-03-16T22:11:34.574Z,7.87
2023-03-16T22:14:36.654Z,7.50
2023-03-16T22:17:38.962Z,7.43
2023-03-16T22:20:40.623Z,8.43
2023-03-16T22:23:42.324Z,7.53
2023-03-16T22:26:44.337Z,11.77
2023-03-16T22:29:46.020Z,6.87
2023-03-16T22:32:50.494Z,10.53
2023-03-16T22:35:52.534Z,11.80
2023-03-16T22:39:03.880Z,11.43
2023-03-16T22:42:38.084Z,9.90
2023-03-16T22:45:40.284Z,10.93
2023-03-16T22:48:41.875Z,10.63
2023-03-16T22:51:43.518Z,7.93
2023-03-16T22:54:46.690Z,7.00
2023-03-16T22:57:51.482Z,10.10
2023-03-16T23:00:53.252Z,9.33
2023-03-16T23:03:55.013Z,11.03
2023-03-16T23:06:57.274Z,10.80
2023-03-16T23:09:58.885Z,7.30
2023-03-16T23:13:00.570Z,8.97
2023-03-16T23:16:02.308Z,6.47
2023-03-16T23:19:09.763Z,7.30
2023-03-16T23:22:14.668Z,8.57
2023-03-16T23:25:16.477Z,8.83
2023-03-16T23:28:24.667Z,8.50
2023-03-16T23:31:27.061Z,8.30
2023-03-16T23:34:28.765Z,6.23
2023-03-16T23:37:30.766Z,7.00
2023-03-16T23:40:36.922Z,7.10
2023-03-16T23:43:40.054Z,11.23
2023-03-16T23:46:42.016Z,8.57
2023-03-16T23:49:43.696Z,8.00
2023-03-16T23:52:45.406Z,9.33
2023-03-16T23:55:47.888Z,8.43
2023-03-16T23:58:50.738Z,7.97
